Time;durP1;ratioP1;P1;durP2;ratioP2;P2;SDS_P1;SDS_P2;PMS_P1;PMS_P2;Temp;Humidity;BMP_temperature;BMP_pressure;BME280_temperature;BME280_humidity;BME280_pressure;Samples;Min_cycle;Max_cycle;Signal;HPM_P1;HPM_P2
2023/04/19 00:02:22;;;;;;;;;;;;;;;5.79;74.32;102225.14;108823;1257;60262;-79
2023/04/19 00:04:49;;;;;;;;;;;;;;;5.90;74.51;102222.55;108800;1257;124457;-78
2023/04/19 00:07:17;;;;;;;;;;;;;;;5.91;75.04;102227.80;108738;1257;67081;-79
2023/04/19 00:09:44;;;;;;;;;;;;;;;5.75;75.44;102228.47;108899;1256;71222;-78
2023/04/19 00:12:11;;;;;;;;;;;;;;;5.54;75.66;102224.29;108827;1256;59805;-78
2023/04/19 00:14:38;;;;;;;;;;;;;;;5.44;76.53;102224.80;107688;1256;236167;-77
2023/04/19 00:17:05;;;;;;;;;;;;;;;5.37;77.11;102221.02;107707;1257;124784;-77
2023/04/19 00:19:31;;;;;;;;;;;;;;;5.34;76.99;102220.08;108062;1256;65746;-78
2023/04/19 00:21:59;;;;;;;;;;;;;;;5.33;77.20;102218.42;107898;1257;125229;-79
2023/04/19 00:24:27;;;;;;;;;;;;;;;5.35;77.19;102217.39;108766;1256;59282;-79
2023/04/19 00:26:54;;;;;;;;;;;;;;;5.39;77.12;102210.04;108841;1256;60140;-79
2023/04/19 00:29:21;;;;;;;;;;;;;;;5.43;76.94;102207.48;108762;1256;125019;-79
2023/04/19 00:31:47;;;;;;;;;;;;;;;5.46;76.87;102198.09;108835;1256;67407;-79
2023/04/19 00:34:14;;;;;;;;;;;;;;;5.48;76.80;102201.35;108730;1256;125189;-79
2023/04/19 00:36:41;;;;;;;;;;;;;;;5.49;76.77;102201.27;108745;1257;60861;-79
2023/04/19 00:39:08;;;;;;;;;;;;;;;5.49;76.73;102201.62;108600;1257;59572;-79
2023/04/19 00:41:35;;;;;;;;;;;;;;;5.49;76.61;102200.06;108466;1256;125084;-80
2023/04/19 00:44:02;;;;;;;;;;;;;;;5.49;76.51;102201.50;107760;1256;65550;-80
2023/04/19 00:46:29;;;;;;;;;;;;;;;5.48;76.50;102195.84;107915;1257;125127;-80
2023/04/19 00:48:56;;;;;;;;;;;;;;;5.48;76.57;102193.35;108778;1257;59404;-79
2023/04/19 00:51:23;;;;;;;;;;;;;;;5.49;76.44;102188.73;108865;1259;60137;-80
2023/04/19 00:53:50;;;;;;;;;;;;;;;5.49;76.43;102190.68;108736;1256;124687;-80
2023/04/19 00:56:17;;;;;;;;;;;;;;;5.52;76.38;102191.71;108818;1256;68385;-80
2023/04/19 00:58:44;;;;;;;;;;;;;;;5.54;76.29;102192.27;108688;1257;124398;-80
2023/04/19 01:01:11;;;;;;;;;;;;;;;5.57;76.12;102188.79;108820;1256;59791;-80
2023/04/19 01:03:38;;;;;;;;;;;;;;;5.58;76.06;102186.37;108831;1257;59879;-80
2023/04/19 01:06:05;;;;;;;;;;;;;;;5.58;75.97;102185.23;108760;1256;125324;-80
2023/04/19 01:08:32;;;;;;;;;;;;;;;5.62;75.90;102183.89;108813;1256;65850;-80
2023/04/19 01:10:59;;;;;;;;;;;;;;;5.64;75.87;102188.44;108689;1256;124445;-80
2023/04/19 01:13:26;;;;;;;;;;;;;;;5.68;75.69;102183.58;108739;1257;59367;-80
2023/04/19 01:15:54;;;;;;;;;;;;;;;5.70;75.61;102179.38;108682;1257;125097;-79
2023/04/19 01:18:23;;;;;;;;;;;;;;;5.72;75.54;102176.35;108769;1256;74425;-80
2023/04/19 01:20:50;;;;;;;;;;;;;;;5.73;75.44;102182.36;108721;1260;67097;-80
2023/04/19 01:23:17;;;;;;;;;;;;;;;5.74;75.37;102174.59;108695;1256;124668;-80
2023/04/19 01:25:45;;;;;;;;;;;;;;;5.73;75.24;102173.48;108814;1257;59566;-80
2023/04/19 01:28:12;;;;;;;;;;;;;;;5.69;75.06;102170.24;108708;1256;124731;-80
2023/04/19 01:30:39;;;;;;;;;;;;;;;5.64;75.04;102166.26;108859;1256;74833;-80
2023/04/19 01:33:05;;;;;;;;;;;;;;;5.59;75.00;102166.08;108854;1256;65532;-80
2023/04/19 01:35:32;;;;;;;;;;;;;;;5.53;74.96;102161.88;108634;1257;124984;-81
2023/04/19 01:38:04;;;;;;;;;;;;;;;5.49;75.01;102160.55;108809;1256;60153;-81
2023/04/19 01:40:31;;;;;;;;;;;;;;;5.43;74.98;102159.65;108756;1256;125270;-80
2023/04/19 01:42:58;;;;;;;;;;;;;;;5.40;75.14;102155.02;108843;1256;73068;-80
2023/04/19 01:45:25;;;;;;;;;;;;;;;5.35;75.15;102158.36;108860;1256;65889;-81
2023/04/19 01:47:52;;;;;;;;;;;;;;;5.30;75.05;102160.61;108793;1256;125008;-80
2023/04/19 01:50:19;;;;;;;;;;;;;;;5.23;75.08;102156.73;108780;1257;59531;-79
2023/04/19 01:52:46;;;;;;;;;;;;;;;5.18;75.23;102158.98;108663;1257;124952;-80
2023/04/19 01:55:13;;;;;;;;;;;;;;;5.15;75.13;102153.89;108833;1256;74772;-80
2023/04/19 01:57:40;;;;;;;;;;;;;;;5.10;75.32;102151.27;108864;1256;65724;-81
2023/04/19 02:00:07;;;;;;;;;;;;;;;5.06;75.28;102145.27;108756;1256;125067;-80
2023/04/19 02:02:35;;;;;;;;;;;;;;;5.02;75.23;102144.61;108741;1256;59401;-80
2023/04/19 02:05:03;;;;;;;;;;;;;;;4.97;75.31;102141.83;108712;1257;125094;-80
2023/04/19 02:07:30;;;;;;;;;;;;;;;4.93;75.42;102135.29;108894;1256;73789;-81
2023/04/19 02:10:00;;;;;;;;;;;;;;;4.89;75.38;102136.71;108638;1256;124978;-81
2023/04/19 02:12:30;;;;;;;;;;;;;;;4.84;75.46;102134.46;108676;1257;73958;-80
2023/04/19 02:14:58;;;;;;;;;;;;;;;4.81;75.63;102136.52;108787;1256;59867;-81
2023/04/19 02:17:25;;;;;;;;;;;;;;;4.78;75.68;102137.72;108717;1257;125214;-80
2023/04/19 02:19:52;;;;;;;;;;;;;;;4.76;75.78;102136.38;108833;1256;74673;-80
2023/04/19 02:22:19;;;;;;;;;;;;;;;4.75;75.81;102133.50;108713;1256;124178;-80
2023/04/19 02:24:46;;;;;;;;;;;;;;;4.73;75.84;102131.58;108729;1256;72951;-80
2023/04/19 02:27:13;;;;;;;;;;;;;;;4.72;75.99;102133.63;108816;1256;59545;-81
2023/04/19 02:29:40;;;;;;;;;;;;;;;4.70;75.96;102131.94;108758;1257;125266;-79
2023/04/19 02:32:07;;;;;;;;;;;;;;;4.68;76.04;102125.88;108796;1256;74396;-80
2023/04/19 02:34:34;;;;;;;;;;;;;;;4.65;76.15;102128.15;108697;1256;125066;-80
2023/04/19 02:37:02;;;;;;;;;;;;;;;4.65;76.21;102130.04;108705;1256;72758;-80
2023/04/19 02:39:29;;;;;;;;;;;;;;;4.65;76.23;102127.43;108836;1256;59960;-80
2023/04/19 02:41:56;;;;;;;;;;;;;;;4.63;76.20;102121.51;108788;1256;124964;-80
2023/04/19 02:44:23;;;;;;;;;;;;;;;4.62;76.24;102119.39;108888;1256;74668;-81
2023/04/19 02:46:50;;;;;;;;;;;;;;;4.60;76.41;102122.71;108131;1257;125191;-80
2023/04/19 02:49:17;;;;;;;;;;;;;;;4.59;76.35;102119.67;107886;1257;71830;-80
2023/04/19 02:51:44;;;;;;;;;;;;;;;4.58;76.48;102112.29;107590;1256;61119;-80
2023/04/19 02:54:11;;;;;;;;;;;;;;;4.59;76.53;102112.70;107527;1256;124720;-80
2023/04/19 02:56:38;;;;;;;;;;;;;;;4.57;76.34;102105.46;108081;1257;74684;-80
2023/04/19 02:59:05;;;;;;;;;;;;;;;4.55;76.51;102101.15;107954;1256;124615;-80
2023/04/19 03:01:33;;;;;;;;;;;;;;;4.54;76.59;102096.91;108140;1256;71402;-81
2023/04/19 03:04:00;;;;;;;;;;;;;;;4.53;76.58;102097.30;108036;1259;124673;-80
2023/04/19 03:06:27;;;;;;;;;;;;;;;4.51;76.59;102099.08;108137;1259;61105;-81
2023/04/19 03:08:54;;;;;;;;;;;;;;;4.50;76.48;102099.39;107964;1256;72253;-81
2023/04/19 03:11:21;;;;;;;;;;;;;;;4.50;76.64;102097.81;108119;1260;125235;-81
2023/04/19 03:13:48;;;;;;;;;;;;;;;4.50;76.82;102094.33;107948;1256;73231;-81
2023/04/19 03:16:15;;;;;;;;;;;;;;;4.48;76.81;102090.05;108630;1257;124678;-80
2023/04/19 03:18:42;;;;;;;;;;;;;;;4.48;76.76;102092.12;107614;1256;59778;-81
2023/04/19 03:21:12;;;;;;;;;;;;;;;4.46;76.73;102088.19;107747;1256;74645;-81
2023/04/19 03:23:39;;;;;;;;;;;;;;;4.45;76.74;102082.38;107601;1259;124917;-81
2023/04/19 03:26:06;;;;;;;;;;;;;;;4.45;76.88;102079.41;107642;1257;72709;-81
2023/04/19 03:28:33;;;;;;;;;;;;;;;4.45;76.78;102082.19;107933;1259;125269;-80
2023/04/19 03:31:01;;;;;;;;;;;;;;;4.45;76.89;102081.83;107835;1256;59778;-80
2023/04/19 03:33:28;;;;;;;;;;;;;;;4.45;76.92;102079.58;107503;1262;74695;-80
2023/04/19 03:35:55;;;;;;;;;;;;;;;4.45;76.87;102078.20;107555;1256;125275;-78
2023/04/19 03:38:22;;;;;;;;;;;;;;;4.45;76.92;102078.36;107553;1256;73234;-78
2023/04/19 03:40:49;;;;;;;;;;;;;;;4.46;76.93;102074.94;107717;1256;124470;-79
2023/04/19 03:43:16;;;;;;;;;;;;;;;4.47;76.92;102072.59;107718;1256;61148;-79
2023/04/19 03:45:43;;;;;;;;;;;;;;;4.49;76.85;102074.14;107643;1256;74574;-79
2023/04/19 03:48:10;;;;;;;;;;;;;;;4.52;76.89;102073.11;107636;1256;124884;-79
2023/04/19 03:50:37;;;;;;;;;;;;;;;4.54;76.89;102072.40;107531;1256;72890;-78
2023/04/19 03:53:04;;;;;;;;;;;;;;;4.56;76.98;102077.08;107502;1260;125356;-79
2023/04/19 03:55:31;;;;;;;;;;;;;;;4.60;76.82;102068.83;107647;1256;61200;-78
2023/04/19 03:57:58;;;;;;;;;;;;;;;4.63;76.79;102066.45;107569;1256;124637;-78
2023/04/19 04:00:26;;;;;;;;;;;;;;;4.67;76.91;102068.11;107635;1257;67587;-79
2023/04/19 04:02:53;;;;;;;;;;;;;;;4.72;76.93;102059.92;107735;1256;71374;-78
2023/04/19 04:05:20;;;;;;;;;;;;;;;4.80;76.82;102065.50;107898;1256;125285;-78
2023/04/19 04:07:47;;;;;;;;;;;;;;;4.90;76.85;102062.70;107817;1256;60215;-78
2023/04/19 04:10:14;;;;;;;;;;;;;;;5.00;76.88;102064.46;107507;1257;124659;-78
2023/04/19 04:12:41;;;;;;;;;;;;;;;5.10;76.73;102062.86;107790;1256;67705;-78
2023/04/19 04:15:08;;;;;;;;;;;;;;;5.20;76.62;102056.20;107852;1257;72638;-80
2023/04/19 04:17:35;;;;;;;;;;;;;;;5.28;76.46;102062.66;107421;1257;124979;-78
2023/04/19 04:20:02;;;;;;;;;;;;;;;5.35;76.45;102055.88;108297;1256;60649;-78
2023/04/19 04:22:29;;;;;;;;;;;;;;;5.42;76.23;102057.73;108675;1256;125332;-80
2023/04/19 04:24:59;;;;;;;;;;;;;;;5.51;76.23;102057.41;108918;1256;65586;-87
2023/04/19 04:27:26;;;;;;;;;;;;;;;5.59;76.07;102053.95;107649;1256;71529;-78
2023/04/19 04:29:55;;;;;;;;;;;;;;;5.65;75.83;102052.80;107552;1257;124690;-79
2023/04/19 04:32:22;;;;;;;;;;;;;;;5.73;75.75;102059.19;107544;1256;60207;-79
2023/04/19 04:34:49;;;;;;;;;;;;;;;5.79;75.62;102050.94;107253;1256;124974;-80
2023/04/19 04:37:16;;;;;;;;;;;;;;;5.86;75.49;102048.55;107261;1257;67075;-79
2023/04/19 04:39:51;;;;;;;;;;;;;;;5.92;75.23;102048.64;107518;1257;71085;-78
2023/04/19 04:42:20;;;;;;;;;;;;;;;5.98;75.20;102049.54;107663;1256;59727;-80
2023/04/19 04:44:49;;;;;;;;;;;;;;;6.03;74.98;102047.09;107806;1256;61457;-80
2023/04/19 04:47:16;;;;;;;;;;;;;;;6.08;74.77;102046.71;107832;1256;125070;-80
2023/04/19 04:49:43;;;;;;;;;;;;;;;6.13;74.76;102048.80;107479;1256;65513;-81
2023/04/19 04:52:10;;;;;;;;;;;;;;;6.20;74.57;102050.28;107315;1262;124765;-81
2023/04/19 04:54:37;;;;;;;;;;;;;;;6.27;74.45;102050.50;107996;1256;59359;-80
2023/04/19 04:57:05;;;;;;;;;;;;;;;6.33;74.19;102048.45;108119;1257;60944;-81
2023/04/19 04:59:32;;;;;;;;;;;;;;;6.35;74.02;102056.63;107806;1256;124739;-79
2023/04/19 05:01:59;;;;;;;;;;;;;;;6.36;73.88;102054.10;107784;1256;65916;-81
2023/04/19 05:04:26;;;;;;;;;;;;;;;6.36;73.79;102043.64;107475;1256;124771;-80
2023/04/19 05:06:53;;;;;;;;;;;;;;;6.38;73.71;102044.27;107762;1260;60135;-83
2023/04/19 05:09:20;;;;;;;;;;;;;;;6.39;73.45;102042.73;107402;1256;60569;-82
2023/04/19 05:11:47;;;;;;;;;;;;;;;6.39;73.55;102045.05;107265;1263;124564;-83
2023/04/19 05:14:14;;;;;;;;;;;;;;;6.44;73.40;102042.17;107649;1256;66804;-83
2023/04/19 05:16:45;;;;;;;;;;;;;;;6.50;73.40;102044.27;108004;1257;124728;-82
2023/04/19 05:19:12;;;;;;;;;;;;;;;6.56;73.28;102046.25;107978;1256;60497;-83
2023/04/19 05:21:40;;;;;;;;;;;;;;;6.62;73.12;102039.96;107862;1257;60361;-83
2023/04/19 05:24:08;;;;;;;;;;;;;;;6.68;73.07;102037.41;107924;1256;124284;-82
2023/04/19 05:26:35;;;;;;;;;;;;;;;6.74;73.00;102039.51;108191;1256;67652;-82
2023/04/19 05:29:04;;;;;;;;;;;;;;;6.77;72.82;102035.67;108018;1256;124360;-83
2023/04/19 05:31:31;;;;;;;;;;;;;;;6.82;72.75;102039.06;108082;1257;59605;-83
2023/04/19 05:33:58;;;;;;;;;;;;;;;6.87;72.66;102035.05;107987;1256;125333;-82
2023/04/19 05:36:25;;;;;;;;;;;;;;;6.92;72.36;102028.91;107980;1256;74384;-82
2023/04/19 05:38:52;;;;;;;;;;;;;;;6.98;72.18;102036.05;107763;1256;65780;-81
2023/04/19 05:41:19;;;;;;;;;;;;;;;7.09;72.22;102033.91;107613;1256;124689;-82
2023/04/19 05:43:47;;;;;;;;;;;;;;;7.25;71.88;102035.74;107710;1256;59284;-82
2023/04/19 05:46:23;;;;;;;;;;;;;;;7.44;71.81;102035.59;107671;1256;124412;-82
2023/04/19 05:48:50;;;;;;;;;;;;;;;7.60;71.48;102029.73;107681;1256;74744;-82
2023/04/19 05:51:17;;;;;;;;;;;;;;;7.71;70.78;102034.39;107366;1256;65620;-82
2023/04/19 05:53:45;;;;;;;;;;;;;;;7.72;70.45;102028.16;107557;1257;124829;-82
2023/04/19 05:56:12;;;;;;;;;;;;;;;7.80;70.58;102026.49;107912;1256;59665;-83
2023/04/19 05:58:39;;;;;;;;;;;;;;;7.90;70.32;102025.86;107710;1257;124862;-82
2023/04/19 06:01:06;;;;;;;;;;;;;;;7.98;70.13;102026.45;107967;1256;74586;-82
2023/04/19 06:03:33;;;;;;;;;;;;;;;8.07;69.97;102022.41;107901;1257;65484;-81
2023/04/19 06:06:00;;;;;;;;;;;;;;;8.15;69.48;102019.19;107957;1256;124487;-82
2023/04/19 06:08:27;;;;;;;;;;;;;;;8.22;68.86;102016.58;107980;1259;61636;-82
2023/04/19 06:10:55;;;;;;;;;;;;;;;8.21;68.60;102008.66;108129;1256;124233;-82
2023/04/19 06:13:22;;;;;;;;;;;;;;;8.20;68.37;102010.02;107747;1257;75617;-82
2023/04/19 06:15:50;;;;;;;;;;;;;;;8.25;68.31;102000.66;107673;1256;65564;-80
2023/04/19 06:18:17;;;;;;;;;;;;;;;8.39;68.16;102009.64;107655;1258;71267;-80
2023/04/19 06:20:45;;;;;;;;;;;;;;;8.42;67.36;102004.20;107582;1257;60042;-80
2023/04/19 06:23:13;;;;;;;;;;;;;;;8.39;66.96;102010.19;107483;1256;123780;-80
2023/04/19 06:25:40;;;;;;;;;;;;;;;8.43;66.93;102016.19;107379;1257;75236;-81
2023/04/19 06:28:07;;;;;;;;;;;;;;;8.53;67.39;102016.70;107459;1256;124038;-81
2023/04/19 06:30:35;;;;;;;;;;;;;;;8.59;66.97;102021.95;107574;1260;72797;-81
2023/04/19 06:33:01;;;;;;;;;;;;;;;8.54;66.27;102037.76;107447;1256;60944;-81
2023/04/19 06:35:29;;;;;;;;;;;;;;;8.38;65.92;102029.72;107292;1256;124665;-81
2023/04/19 06:37:55;;;;;;;;;;;;;;;8.31;65.98;102017.77;107439;1256;74694;-81
2023/04/19 06:40:22;;;;;;;;;;;;;;;8.32;66.37;102016.79;107432;1256;124375;-81
2023/04/19 06:42:53;;;;;;;;;;;;;;;8.42;66.26;102022.56;107853;1256;72634;-83
2023/04/19 06:45:26;;;;;;;;;;;;;;;8.41;65.94;102028.98;107739;1257;59953;-83
2023/04/19 06:47:55;;;;;;;;;;;;;;;8.38;65.79;102033.21;107985;1256;124457;-81
2023/04/19 06:50:28;;;;;;;;;;;;;;;8.39;65.95;102026.79;107815;1257;75208;-81
2023/04/19 06:52:55;;;;;;;;;;;;;;;8.40;65.74;102026.69;108631;1256;124179;-81
2023/04/19 06:55:32;;;;;;;;;;;;;;;8.35;65.56;102025.69;108826;1261;71129;-82
2023/04/19 06:58:01;;;;;;;;;;;;;;;8.42;65.76;102025.73;108735;1256;123920;-82
2023/04/19 07:00:28;;;;;;;;;;;;;;;8.49;65.58;102033.13;108929;1256;59205;-81
2023/04/19 07:02:55;;;;;;;;;;;;;;;8.55;65.41;102030.11;108902;1256;74426;-80
2023/04/19 07:05:22;;;;;;;;;;;;;;;8.58;65.03;102026.98;108838;1259;124145;-80
2023/04/19 07:07:49;;;;;;;;;;;;;;;8.58;64.41;102042.35;108791;1256;71413;-80
2023/04/19 07:10:16;;;;;;;;;;;;;;;8.45;64.15;102035.86;108674;1256;124129;-80
2023/04/19 07:12:43;;;;;;;;;;;;;;;8.47;64.77;102030.06;108843;1256;59491;-80
2023/04/19 07:15:10;;;;;;;;;;;;;;;8.66;65.02;102030.21;108838;1256;74672;-81
2023/04/19 07:17:37;;;;;;;;;;;;;;;8.88;64.56;102030.13;108386;1260;124661;-81
2023/04/19 07:20:05;;;;;;;;;;;;;;;8.98;63.81;102020.84;107864;1257;71396;-80
2023/04/19 07:22:33;;;;;;;;;;;;;;;9.00;63.57;102024.44;107989;1256;124425;-80
2023/04/19 07:25:00;;;;;;;;;;;;;;;8.90;63.16;102028.14;107996;1257;60159;-82
2023/04/19 07:27:28;;;;;;;;;;;;;;;8.80;63.32;102017.94;107743;1257;74716;-82
2023/04/19 07:29:55;;;;;;;;;;;;;;;8.69;63.12;102014.97;107754;1257;124843;-80
2023/04/19 07:32:22;;;;;;;;;;;;;;;8.59;63.07;102000.07;107816;1257;71416;-80
2023/04/19 07:34:50;;;;;;;;;;;;;;;8.56;63.36;102002.17;107621;1257;124078;-81
2023/04/19 07:37:17;;;;;;;;;;;;;;;8.57;63.51;102000.81;107536;1262;59994;-82
2023/04/19 07:39:44;;;;;;;;;;;;;;;8.56;63.23;102000.62;107862;1257;75156;-82
2023/04/19 07:42:12;;;;;;;;;;;;;;;8.50;63.25;101999.23;107651;1259;124304;-83
2023/04/19 07:44:39;;;;;;;;;;;;;;;8.40;62.93;101999.21;107553;1260;72554;-80
2023/04/19 07:47:06;;;;;;;;;;;;;;;8.32;62.86;101990.56;107463;1256;124417;-82
2023/04/19 07:49:33;;;;;;;;;;;;;;;8.36;62.68;101984.69;107381;1259;61253;-82
2023/04/19 07:52:00;;;;;;;;;;;;;;;8.43;62.82;101981.51;107397;1258;74337;-82
2023/04/19 07:54:28;;;;;;;;;;;;;;;8.53;62.68;101993.31;107556;1261;65559;-82
2023/04/19 07:56:56;;;;;;;;;;;;;;;8.64;62.76;101992.11;107432;1256;72760;-82
2023/04/19 07:59:23;;;;;;;;;;;;;;;8.76;62.69;101988.55;107553;1256;124084;-82
2023/04/19 08:01:50;;;;;;;;;;;;;;;8.82;62.17;101986.77;107985;1260;59808;-83
2023/04/19 08:04:18;;;;;;;;;;;;;;;8.84;61.36;101984.05;107854;1257;124225;-83
2023/04/19 08:06:46;;;;;;;;;;;;;;;8.86;61.69;101980.15;108468;1256;65996;-82
2023/04/19 08:09:13;;;;;;;;;;;;;;;8.90;61.87;101977.04;107698;1262;73272;-81
2023/04/19 08:11:41;;;;;;;;;;;;;;;9.03;61.63;101989.92;107749;1256;125468;-82
2023/04/19 08:14:11;;;;;;;;;;;;;;;9.12;61.71;101996.36;107460;1256;60987;-82
2023/04/19 08:16:38;;;;;;;;;;;;;;;9.19;60.80;102015.60;107302;1256;124840;-82
2023/04/19 08:19:05;;;;;;;;;;;;;;;9.03;60.78;102014.61;107512;1257;65831;-82
2023/04/19 08:21:32;;;;;;;;;;;;;;;8.94;60.53;102019.55;107646;1256;71347;-82
2023/04/19 08:23:59;;;;;;;;;;;;;;;8.83;60.94;102019.20;107395;1256;124391;-82
2023/04/19 08:26:26;;;;;;;;;;;;;;;8.78;61.04;102005.82;107862;1261;61144;-80
2023/04/19 08:28:53;;;;;;;;;;;;;;;8.66;61.25;102012.86;107501;1257;124310;-80
2023/04/19 08:31:21;;;;;;;;;;;;;;;8.53;61.49;102002.06;107510;1258;67382;-78
2023/04/19 08:33:47;;;;;;;;;;;;;;;8.46;61.68;102017.92;107584;1256;72720;-80
2023/04/19 08:36:15;;;;;;;;;;;;;;;8.32;61.65;102015.71;107428;1256;124710;-81
2023/04/19 08:38:42;;;;;;;;;;;;;;;8.07;61.51;102007.75;107648;1259;60136;-82
2023/04/19 08:41:10;;;;;;;;;;;;;;;7.83;62.14;102007.95;107695;1259;124523;-82
2023/04/19 08:43:37;;;;;;;;;;;;;;;7.68;62.74;102015.14;107677;1256;65830;-83
2023/04/19 08:46:04;;;;;;;;;;;;;;;7.44;63.55;102009.41;107490;1262;72821;-82
2023/04/19 08:48:32;;;;;;;;;;;;;;;7.27;64.31;102013.29;107647;1256;60745;-80
2023/04/19 08:50:59;;;;;;;;;;;;;;;7.13;65.84;102005.04;107730;1260;61088;-80
2023/04/19 08:53:29;;;;;;;;;;;;;;;6.96;66.53;102012.70;107316;1257;124848;-80
2023/04/19 08:55:59;;;;;;;;;;;;;;;6.82;66.54;102009.45;107666;1257;66327;-80
2023/04/19 08:58:28;;;;;;;;;;;;;;;6.76;66.54;102013.27;107432;1256;125214;-78
2023/04/19 09:00:57;;;;;;;;;;;;;;;6.63;67.04;102005.14;107465;1256;61166;-78
2023/04/19 09:03:24;;;;;;;;;;;;;;;6.58;67.73;102006.10;107400;1257;59713;-79
2023/04/19 09:05:53;;;;;;;;;;;;;;;6.57;68.13;102002.02;107703;1258;125726;-79
2023/04/19 09:08:29;;;;;;;;;;;;;;;6.52;68.09;102010.43;107709;1258;66941;-79
2023/04/19 09:10:57;;;;;;;;;;;;;;;6.37;68.08;102004.44;107274;1258;125230;-79
2023/04/19 09:13:24;;;;;;;;;;;;;;;6.32;68.97;102006.20;107330;1265;60288;-79
2023/04/19 09:15:52;;;;;;;;;;;;;;;6.30;69.62;102018.79;107360;1259;61352;-81
2023/04/19 09:18:19;;;;;;;;;;;;;;;6.16;71.25;102005.40;107144;1264;125280;-79
2023/04/19 09:20:46;;;;;;;;;;;;;;;5.92;72.22;101999.86;107615;1261;67130;-79
2023/04/19 09:23:16;;;;;;;;;;;;;;;5.76;72.25;102001.61;108396;1259;124575;-79
2023/04/19 09:25:56;;;;;;;;;;;;;;;5.59;72.67;102005.02;108714;1257;59547;-79
2023/04/19 09:28:24;;;;;;;;;;;;;;;5.34;73.63;102003.91;108545;1259;125512;-79
2023/04/19 09:30:51;;;;;;;;;;;;;;;5.13;74.84;102000.41;108815;1257;75202;-79
2023/04/19 09:33:34;;;;;;;;;;;;;;;5.04;75.23;102005.02;107482;1265;67435;-79
2023/04/19 09:36:01;;;;;;;;;;;;;;;4.98;77.59;101995.42;107173;1265;125010;-79
2023/04/19 09:38:28;;;;;;;;;;;;;;;4.97;79.07;101992.20;107249;1260;61533;-79
2023/04/19 09:41:04;;;;;;;;;;;;;;;4.95;79.47;101987.73;107650;1259;125090;-79
2023/04/19 09:43:31;;;;;;;;;;;;;;;4.92;80.14;101996.07;107881;1258;75155;-79
2023/04/19 09:45:59;;;;;;;;;;;;;;;4.83;80.15;101984.86;107488;1257;67336;-81
2023/04/19 09:48:26;;;;;;;;;;;;;;;4.86;79.91;101983.66;107474;1258;124418;-80
2023/04/19 09:51:03;;;;;;;;;;;;;;;4.85;79.86;101984.13;107549;1258;61885;-80
2023/04/19 09:53:32;;;;;;;;;;;;;;;4.76;80.74;101999.46;107531;1259;124790;-80
2023/04/19 09:56:00;;;;;;;;;;;;;;;4.64;80.76;102001.44;107587;1259;74952;-80
2023/04/19 09:58:27;;;;;;;;;;;;;;;4.58;80.58;102005.07;107481;1259;125095;-80
2023/04/19 10:00:54;;;;;;;;;;;;;;;4.56;81.20;102000.20;107457;1259;72586;-80
2023/04/19 10:03:22;;;;;;;;;;;;;;;4.51;82.32;102005.43;107406;1256;60016;-80
2023/04/19 10:05:49;;;;;;;;;;;;;;;4.45;82.93;101996.32;107519;1260;124937;-80
2023/04/19 10:08:16;;;;;;;;;;;;;;;4.47;84.02;102000.13;107431;1262;75067;-80
2023/04/19 10:10:44;;;;;;;;;;;;;;;4.47;84.34;101997.52;107488;1260;125102;-80
2023/04/19 10:13:12;;;;;;;;;;;;;;;4.50;84.58;101978.42;107437;1256;72818;-80
2023/04/19 10:15:39;;;;;;;;;;;;;;;4.48;84.87;101979.30;107544;1256;59615;-80
2023/04/19 10:18:06;;;;;;;;;;;;;;;4.44;84.71;101998.21;107683;1256;125539;-80
2023/04/19 10:20:59;;;;;;;;;;;;;;;4.41;84.44;101996.71;107774;1262;74715;-80
2023/04/19 10:23:26;;;;;;;;;;;;;;;4.39;85.12;101976.27;107445;1256;125103;-80
2023/04/19 10:25:54;;;;;;;;;;;;;;;4.42;85.14;101977.20;107587;1257;71450;-79
2023/04/19 10:28:21;;;;;;;;;;;;;;;4.41;84.67;101981.23;107666;1257;125144;-82
2023/04/19 10:30:57;;;;;;;;;;;;;;;4.36;84.51;101979.38;107693;1260;61478;-81
2023/04/19 10:33:25;;;;;;;;;;;;;;;4.36;84.64;101979.52;107159;1256;75775;-82
2023/04/19 10:35:54;;;;;;;;;;;;;;;4.34;84.90;101985.80;107300;1256;124941;-82
2023/04/19 10:38:21;;;;;;;;;;;;;;;4.30;85.55;101980.36;107272;1259;73060;-81
2023/04/19 10:40:54;;;;;;;;;;;;;;;4.30;86.11;101978.75;107166;1256;124989;-82
2023/04/19 10:43:21;;;;;;;;;;;;;;;4.30;86.26;101976.86;107520;1256;60186;-81
2023/04/19 10:45:48;;;;;;;;;;;;;;;4.33;86.21;101989.55;107480;1256;73727;-81
2023/04/19 10:48:34;;;;;;;;;;;;;;;4.35;85.97;101993.92;107559;1262;124587;-81
2023/04/19 10:51:01;;;;;;;;;;;;;;;4.34;85.94;101995.38;107698;1257;71408;-80
2023/04/19 10:53:55;;;;;;;;;;;;;;;4.33;86.56;101992.89;107125;1257;124612;-80
2023/04/19 10:56:22;;;;;;;;;;;;;;;4.34;86.82;101989.11;108813;1257;59986;-81
2023/04/19 10:59:06;;;;;;;;;;;;;;;4.38;86.61;101992.70;108856;1261;125114;-80
2023/04/19 11:01:43;;;;;;;;;;;;;;;4.41;86.72;101985.93;107504;1256;65831;-80
2023/04/19 11:04:14;;;;;;;;;;;;;;;4.49;86.75;101988.80;107253;1256;125110;-80
2023/04/19 11:06:53;;;;;;;;;;;;;;;4.59;86.88;101987.88;107458;1261;59845;-81
2023/04/19 11:09:30;;;;;;;;;;;;;;;4.67;86.66;101987.27;107469;1257;59821;-81
2023/04/19 11:11:57;;;;;;;;;;;;;;;4.76;86.72;101985.73;107376;1256;125206;-81
2023/04/19 11:14:24;;;;;;;;;;;;;;;4.87;86.84;101984.06;107717;1260;65898;-80
2023/04/19 11:16:51;;;;;;;;;;;;;;;4.96;86.80;101986.05;107368;1256;125257;-80
2023/04/19 11:19:18;;;;;;;;;;;;;;;5.02;86.69;101988.19;107495;1257;59553;-80
2023/04/19 11:21:46;;;;;;;;;;;;;;;5.00;86.24;101989.63;107302;1257;61325;-80
2023/04/19 11:24:15;;;;;;;;;;;;;;;5.04;86.42;101985.77;107400;1257;124455;-81
2023/04/19 11:26:42;;;;;;;;;;;;;;;5.11;86.43;101990.01;107218;1256;67017;-83
2023/04/19 11:29:11;;;;;;;;;;;;;;;5.20;86.61;101987.17;107552;1256;125314;-82
2023/04/19 11:31:38;;;;;;;;;;;;;;;5.33;86.75;101988.91;107740;1257;59478;-82
2023/04/19 11:34:05;;;;;;;;;;;;;;;5.54;86.91;101996.33;107336;1256;61142;-82
2023/04/19 11:36:35;;;;;;;;;;;;;;;5.64;86.63;101997.48;107434;1257;73622;-82
2023/04/19 11:39:05;;;;;;;;;;;;;;;5.77;86.68;101993.79;107638;1256;66765;-82
2023/04/19 11:41:38;;;;;;;;;;;;;;;5.91;86.47;101990.16;107496;1257;125065;-82
2023/04/19 11:44:13;;;;;;;;;;;;;;;6.03;85.53;101980.88;107263;1256;61354;-82
2023/04/19 11:46:43;;;;;;;;;;;;;;;6.18;84.86;101978.34;107209;1257;125384;-82
2023/04/19 11:49:11;;;;;;;;;;;;;;;6.36;84.15;101977.02;107519;1257;73474;-82
2023/04/19 11:51:42;;;;;;;;;;;;;;;6.51;83.43;101986.77;107415;1257;65450;-82
2023/04/19 11:54:13;;;;;;;;;;;;;;;6.61;82.83;101976.41;107419;1257;126025;-82
2023/04/19 11:56:56;;;;;;;;;;;;;;;6.77;82.47;101975.46;107454;1257;62181;-82
2023/04/19 11:59:23;;;;;;;;;;;;;;;6.87;81.87;101967.52;107427;1256;125201;-82
2023/04/19 12:01:50;;;;;;;;;;;;;;;7.05;81.85;101970.64;107403;1258;74731;-83
2023/04/19 12:04:17;;;;;;;;;;;;;;;7.28;81.44;101969.21;107659;1257;124731;-83
2023/04/19 12:06:44;;;;;;;;;;;;;;;7.50;81.11;101963.30;107977;1262;72614;-83
2023/04/19 12:09:42;;;;;;;;;;;;;;;7.69;80.74;101963.85;107960;1257;59651;-83
2023/04/19 12:12:09;;;;;;;;;;;;;;;7.98;79.97;101957.23;107603;1259;125145;-83
2023/04/19 12:14:37;;;;;;;;;;;;;;;8.18;79.62;101952.70;107105;1257;292113;-82
2023/04/19 12:17:08;;;;;;;;;;;;;;;8.37;79.16;101954.11;107304;1261;124962;-83
2023/04/19 12:19:36;;;;;;;;;;;;;;;8.54;78.52;101947.33;107661;1257;72753;-83
2023/04/19 12:22:07;;;;;;;;;;;;;;;8.71;77.90;101953.48;107549;1260;61385;-82
2023/04/19 12:24:34;;;;;;;;;;;;;;;8.82;77.12;101948.26;107416;1258;61052;-83
2023/04/19 12:27:01;;;;;;;;;;;;;;;9.04;76.63;101936.58;108006;1256;73203;-83
2023/04/19 12:29:28;;;;;;;;;;;;;;;9.18;76.07;101944.27;107420;1257;123983;-83
2023/04/19 12:31:55;;;;;;;;;;;;;;;9.29;76.09;101937.66;107575;1256;73194;-83
2023/04/19 12:34:24;;;;;;;;;;;;;;;9.54;76.27;101939.05;107645;1256;62085;-83
2023/04/19 12:36:51;;;;;;;;;;;;;;;9.79;75.92;101937.58;107864;1260;60628;-83
2023/04/19 12:39:17;;;;;;;;;;;;;;;9.87;75.48;101942.19;107644;1257;76128;-81